Flight Track Log - Related Links

Times and Time Zones

All times are in EDT time to prevent confusion due to time zone crossing. See the SWA3313 flight status page for this flight to view local times or setup timezone preferences in your user account.

Time Position Orientation Groundspeed Altitude Reporting Facility
EDT Latitude Longitude Course Direction KTS MPH feet Rate Location/Type
Fri 05:51:01 PM 42.9167 -71.4333 180° South 154 177 900  Level KA90
Fri 05:51:49 PM 42.8833 -71.4333 180° South 165 190 2,400 1,444 Climbing KA90
Fri 05:52:49 PM 42.8667 -71.4833 246° West 227 261 3,500 1,786 Climbing KA90
Fri 05:53:13 PM 42.8781 -71.5192 293° West 297 342 4,900 3,247 Climbing Boston Center
Fri 05:54:14 PM 42.9406 -71.4956 15° North 341 392 8,100 3,124 Climbing Boston Center
Fri 05:55:14 PM 42.9850 -71.3475 68° East 339 390 11,200 2,975 Climbing Boston Center
Fri 05:56:15 PM 43.0314 -71.2075 66° East 381 438 14,100 2,727 Climbing Boston Center
Fri 05:57:15 PM 43.0714 -71.0558 70° East 412 474 16,700 2,695 Climbing Boston Center
Fri 05:58:13 PM 43.0383 -70.9231 109° East 405 466 19,400 2,773 Climbing Boston Center
Fri 05:59:14 PM 42.9400 -70.8858 165° South 306 352 22,200 2,331 Climbing Boston Center
Fri 06:00:14 PM 42.8469 -70.9447 205° Southwest 277 319 24,100 1,736 Climbing Boston Center
Fri 06:01:15 PM 42.7436 -70.9983 201° Southwest 339 390 25,700 1,636 Climbing Boston Center
Fri 06:02:15 PM 42.6317 -71.0544 200° South 390 449 27,400 1,950 Climbing Boston Center
Fri 06:03:15 PM 42.5261 -71.1075 200° South 411 473 29,600 1,322 Climbing Boston Center
Fri 06:04:13 PM 42.4225 -71.1689 204° Southwest 411 473 30,000 203 Climbing Boston Center
Fri 06:05:13 PM 42.3758 -71.2992 244° Southwest 377 434 30,000  Level Boston Center
Fri 06:06:14 PM 42.3336 -71.4403 248° West 383 441 30,000  Level Boston Center
Fri 06:07:14 PM 42.2867 -71.5925 247° West 403 464 30,000  Level Boston Center
Fri 06:08:15 PM 42.2439 -71.7278 247° West 403 464 30,000  Level Boston Center
Fri 06:09:15 PM 42.1967 -71.8600 244° Southwest 398 458 30,000  Level Boston Center
Fri 06:10:15 PM 42.1369 -71.9781 236° Southwest 398 458 30,000  Level Boston Center
Fri 06:11:13 PM 42.0769 -72.0989 236° Southwest 393 452 30,000  Level Boston Center
Fri 06:12:13 PM 42.0125 -72.2139 233° Southwest 393 452 30,000  Level Boston Center
Fri 06:13:13 PM 41.9522 -72.3311 235° Southwest 393 452 30,000  Level Boston Center
Fri 06:14:14 PM 41.8897 -72.4486 234° Southwest 393 452 30,000  Level Boston Center
Fri 06:15:13 PM 41.8272 -72.5656 234° Southwest 393 452 30,000  Level Boston Center
Fri 06:16:14 PM 41.7644 -72.6878 235° Southwest 393 452 30,000  Level Boston Center
Fri 06:17:14 PM 41.7081 -72.7906 234° Southwest 393 452 30,000  Level Boston Center
Fri 06:18:13 PM 41.6450 -72.9069 234° Southwest 398 458 30,000  Level Boston Center
Fri 06:19:13 PM 41.5819 -73.0256 235° Southwest 398 458 30,000  Level Boston Center
Fri 06:20:13 PM 41.5144 -73.1525 235° Southwest 394 453 30,000  Level Boston Center
Fri 06:21:14 PM 41.4533 -73.2683 235° Southwest 388 447 30,000  Level Boston Center
Fri 06:23:24 PM 41.3192 -73.5172 234° Southwest 394 453 30,000  Level New Center
Fri 06:24:22 PM 41.2542 -73.6303 233° Southwest 394 453 30,000  Level New Center
Fri 06:25:22 PM 41.1889 -73.7378 231° Southwest 394 453 30,000  Level New Center
Fri 06:26:23 PM 41.1236 -73.8506 232° Southwest 394 453 30,000  Level New Center
Fri 06:27:23 PM 41.0581 -73.9603 232° Southwest 388 447 30,000  Level New Center
Fri 06:28:24 PM 40.9947 -74.0700 233° Southwest 388 447 30,000  Level New Center
Fri 06:29:22 PM 40.9269 -74.1794 231° Southwest 388 447 30,000  Level New Center
Fri 06:30:22 PM 40.8661 -74.2722 229° Southwest 388 447 30,000 -694 Level New Center
Fri 06:31:23 PM 40.8000 -74.3842 232° Southwest 382 440 28,600 -992 Descending New Center
Fri 06:32:23 PM 40.7364 -74.4903 232° Southwest 387 445 28,000 -350 Descending New Center
Fri 06:33:23 PM 40.6683 -74.5986 230° Southwest 387 445 27,900 -496 Descending New Center
Fri 06:34:24 PM 40.6064 -74.7072 233° Southwest 387 445 27,000 -950 Descending New Center
Fri 06:35:23 PM 40.5364 -74.8069 227° Southwest 387 445 26,000 -1,000 Descending New Center
Fri 06:36:24 PM 40.4683 -74.9067 228° Southwest 374 430 25,000 -992 Descending New Center
Fri 06:37:24 PM 40.4003 -75.0008 227° Southwest 369 425 24,000 -1,017 Descending New Center
Fri 06:38:22 PM 40.3322 -75.0947 226° Southwest 369 425 23,000 -1,017 Descending New Center
Fri 06:39:22 PM 40.2664 -75.1883 227° Southwest 364 419 22,000 -1,659 Descending New Center
Fri 06:40:25 PM 40.1936 -75.2925 228° Southwest 358 412 19,600 -2,231 Descending New Center
Fri 06:41:23 PM 40.1297 -75.3778 226° Southwest 347 399 17,500 -2,017 Descending New Center
Fri 06:42:24 PM 40.0769 -75.4503 226° Southwest 329 379 15,600 -1,714 Descending New Center
Fri 06:43:22 PM 40.0131 -75.5383 227° Southwest 312 359 14,100 -763 Descending New Center
Fri 06:44:22 PM 39.9644 -75.6053 227° Southwest 298 343 14,100  Level New Center
Fri 06:45:23 PM 39.9067 -75.6881 228° Southwest 286 329 14,100  Level New Center
Fri 06:46:23 PM 39.8636 -75.7742 237° Southwest 286 329 14,100  Level New Center
Fri 06:47:24 PM 39.8203 -75.8575 236° Southwest 286 329 14,100 -663 Level New Center
Fri 06:49:06 PM 39.7500 -76.0000 237° Southwest 279 321 12,300 -750 Descending Potomac TRACON
Fri 06:50:12 PM 39.7000 -76.0833 232° Southwest 246 283 12,000 -150 Descending Potomac TRACON
Fri 06:51:06 PM 39.6667 -76.1500 237° Southwest 235 270 12,000 -632 Level Potomac TRACON
Fri 06:52:06 PM 39.6333 -76.2167 237° Southwest 244 281 10,800 -1,316 Descending Potomac TRACON
Fri 06:53:00 PM 39.6000 -76.2833 237° Southwest 236 272 9,500 -1,333 Descending Potomac TRACON
Fri 06:53:54 PM 39.5667 -76.3500 237° Southwest 221 254 8,400 -1,400 Descending Potomac TRACON
Fri 06:55:00 PM 39.5333 -76.4167 237° Southwest 213 245 6,700 -1,667 Descending Potomac TRACON
Fri 06:56:00 PM 39.5000 -76.5000 243° Southwest 217 250 4,900 -1,350 Descending Potomac TRACON
Fri 06:57:00 PM 39.4667 -76.5667 237° Southwest 228 262 4,000 -450 Descending Potomac TRACON
Fri 06:58:00 PM 39.4500 -76.6333 252° West 224 258 4,000  Level Potomac TRACON
Fri 06:59:00 PM 39.4167 -76.7000 237° Southwest 220 253 4,000  Level Potomac TRACON
Fri 07:00:00 PM 39.4167 -76.7667 270° West 190 219 4,000  Level Potomac TRACON
Fri 07:01:00 PM 39.4167 -76.8333 270° West 164 189 4,000 -300 Level Potomac TRACON
Fri 07:02:00 PM 39.3833 -76.8500 201° Southwest 149 171 3,400 -476 Descending Potomac TRACON
Fri 07:03:06 PM 39.3500 -76.8333 159° South 149 171 3,000 -190 Descending Potomac TRACON
Fri 07:04:06 PM 39.3167 -76.8000 142° Southeast 158 182 3,000 -316 Level Potomac TRACON
Fri 07:05:00 PM 39.2833 -76.7667 142° Southeast 161 185 2,400 -789 Descending Potomac TRACON
Fri 07:06:00 PM 39.2500 -76.7333 142° Southeast 148 170 1,500 -714 Descending Potomac TRACON
Fri 07:07:06 PM 39.2167 -76.7000 142° Southeast 126 145 900 -545 Descending Potomac TRACON
Fri 07:09:00 PM 39.1754 -76.6683 270° West  Level Estimated
Fri 07:16:00 PM 39.1754 -76.6683 270° West  Level Estimated
Fri 07:17:00 PM 39.1754 -76.6683 270° West  Level Estimated
Fri 07:18:00 PM 39.1754 -76.6683 270° West  Level Estimated
Fri 07:19:00 PM 39.1754 -76.6683 270° West  Level Estimated

Login

Don't have an account? Register now (free) for customized features, flight alerts, and more!